createdAt,value
2022-08-20T00:00:15.814Z,8.95
2022-08-20T00:04:20.301Z,5.55
2022-08-20T00:08:23.830Z,5.70
2022-08-20T00:12:57.886Z,6.50
2022-08-20T00:17:01.150Z,6.35
2022-08-20T00:21:08.577Z,7.55
2022-08-20T00:25:13.191Z,7.75
2022-08-20T00:29:16.828Z,5.25
2022-08-20T00:33:24.554Z,5.43
2022-08-20T00:37:29.203Z,5.55
2022-08-20T00:41:32.516Z,6.78
2022-08-20T00:45:36.924Z,5.32
2022-08-20T00:49:40.353Z,7.80
2022-08-20T00:53:45.818Z,5.30
2022-08-20T00:58:00.680Z,4.82
2022-08-20T01:02:25.481Z,4.38
2022-08-20T01:06:28.901Z,6.30
2022-08-20T01:10:36.742Z,4.93
2022-08-20T01:15:09.304Z,6.15
2022-08-20T01:19:29.587Z,6.72
2022-08-20T01:23:41.617Z,4.70
2022-08-20T01:28:11.732Z,4.68
2022-08-20T01:32:14.878Z,4.72
2022-08-20T01:36:22.191Z,5.63
2022-08-20T01:40:39.949Z,4.93
2022-08-20T01:45:03.329Z,5.30
2022-08-20T01:49:15.640Z,5.78
2022-08-20T01:53:29.833Z,4.90
2022-08-20T01:58:00.356Z,4.70
2022-08-20T02:02:05.567Z,4.47
2022-08-20T02:06:08.809Z,5.22
2022-08-20T02:10:14.782Z,7.55
2022-08-20T02:14:19.299Z,5.43
2022-08-20T02:18:24.028Z,4.25
2022-08-20T02:23:00.832Z,6.13
2022-08-20T02:27:04.063Z,7.13
2022-08-20T02:31:08.651Z,5.25
2022-08-20T02:35:44.782Z,5.10
2022-08-20T02:39:48.579Z,5.40
2022-08-20T02:44:22.387Z,5.35
2022-08-20T02:48:25.575Z,5.65
2022-08-20T02:52:30.148Z,7.45
2022-08-20T02:56:33.399Z,6.45
2022-08-20T03:00:38.301Z,6.97
2022-08-20T03:05:11.972Z,6.78
2022-08-20T03:09:16.503Z,8.40
2022-08-20T03:13:50.382Z,8.18
2022-08-20T03:17:53.469Z,12.98
2022-08-20T03:21:56.749Z,10.93
2022-08-20T03:26:33.170Z,8.65
2022-08-20T03:30:37.990Z,11.65
2022-08-20T03:35:14.533Z,9.38
2022-08-20T03:39:48.179Z,9.00
2022-08-20T03:44:26.942Z,9.75
2022-08-20T03:48:31.712Z,13.82
2022-08-20T03:52:34.907Z,15.38
2022-08-20T03:56:38.046Z,11.80
2022-08-20T04:00:43.418Z,12.68
2022-08-20T04:05:18.976Z,17.02
2022-08-20T04:09:52.574Z,17.42
2022-08-20T04:14:30.047Z,15.70
2022-08-20T04:19:07.526Z,16.23
2022-08-20T04:23:12.128Z,17.35
2022-08-20T04:27:46.655Z,15.82
2022-08-20T04:32:21.367Z,16.02
2022-08-20T04:36:58.197Z,15.27
2022-08-20T04:41:36.396Z,14.75
2022-08-20T04:45:41.614Z,16.70
2022-08-20T04:50:16.137Z,18.05
2022-08-20T04:54:50.030Z,16.42
2022-08-20T04:59:29.004Z,16.55
2022-08-20T05:04:02.983Z,18.13
2022-08-20T05:08:40.694Z,19.88
2022-08-20T05:13:14.222Z,19.60
2022-08-20T05:17:56.343Z,16.77
2022-08-20T05:22:31.029Z,20.13
2022-08-20T05:26:34.857Z,16.17
2022-08-20T05:31:10.925Z,15.80
2022-08-20T05:35:47.638Z,15.73
2022-08-20T05:40:23.067Z,12.85
2022-08-20T05:44:56.919Z,15.00
2022-08-20T05:54:17.250Z,13.48
2022-08-20T05:58:22.681Z,18.50
2022-08-20T06:02:43.296Z,13.82
2022-08-20T06:07:05.193Z,13.90
2022-08-20T06:11:09.788Z,13.98
2022-08-20T06:15:14.233Z,14.63
2022-08-20T06:19:48.643Z,17.60
2022-08-20T06:24:23.493Z,14.77
2022-08-20T06:29:01.901Z,14.23
2022-08-20T06:33:35.716Z,16.38
2022-08-20T06:38:12.626Z,17.45
2022-08-20T06:42:49.349Z,17.20
2022-08-20T06:47:27.822Z,23.98
2022-08-20T06:52:03.588Z,20.02
2022-08-20T06:56:07.943Z,20.20
2022-08-20T07:00:44.577Z,15.55
2022-08-20T07:05:22.906Z,21.35
2022-08-20T07:09:56.637Z,22.60
2022-08-20T07:14:00.082Z,27.23
2022-08-20T07:18:05.874Z,26.70
2022-08-20T07:22:42.357Z,31.17
2022-08-20T07:27:16.738Z,33.55
2022-08-20T07:31:37.443Z,31.33
2022-08-20T07:35:55.710Z,34.70
2022-08-20T07:40:01.411Z,38.78
2022-08-20T07:44:39.438Z,41.38
2022-08-20T07:48:50.194Z,43.47
2022-08-20T07:52:54.351Z,48.70
2022-08-20T07:57:30.046Z,45.00
2022-08-20T08:02:03.391Z,49.58
2022-08-20T08:06:40.702Z,48.92
2022-08-20T08:11:19.378Z,46.40
2022-08-20T08:15:57.532Z,50.15
2022-08-20T08:20:28.219Z,47.88
2022-08-20T08:25:05.797Z,54.35
2022-08-20T08:29:39.994Z,49.40
2022-08-20T08:34:18.323Z,50.47
2022-08-20T08:38:52.239Z,49.85
2022-08-20T08:43:31.776Z,51.10
2022-08-20T08:48:05.761Z,52.03
2022-08-20T08:52:45.138Z,52.15
2022-08-20T08:57:07.679Z,57.50
2022-08-20T09:01:13.877Z,51.97
2022-08-20T09:05:49.825Z,52.53
2022-08-20T09:09:54.805Z,50.40
2022-08-20T09:13:58.671Z,55.38
2022-08-20T09:18:02.103Z,54.65
2022-08-20T09:22:39.066Z,54.30
2022-08-20T09:27:17.750Z,56.03
2022-08-20T09:31:20.914Z,56.95
2022-08-20T09:35:26.367Z,60.97
2022-08-20T09:39:30.600Z,58.65
2022-08-20T09:43:35.153Z,59.40
2022-08-20T09:47:38.404Z,60.00
2022-08-20T09:51:44.834Z,57.30
2022-08-20T09:55:51.189Z,66.47
2022-08-20T09:59:59.848Z,60.10
2022-08-20T10:04:30.485Z,60.00
2022-08-20T10:09:07.124Z,64.93
2022-08-20T10:13:43.944Z,69.15
2022-08-20T10:18:22.270Z,60.60
2022-08-20T10:22:27.356Z,63.40
2022-08-20T10:26:30.492Z,71.55
2022-08-20T10:31:08.073Z,63.20
2022-08-20T10:35:46.403Z,65.68
2022-08-20T10:40:20.754Z,72.47
2022-08-20T10:44:23.946Z,66.85
2022-08-20T10:48:27.340Z,69.38
2022-08-20T10:52:50.386Z,62.85
2022-08-20T10:57:26.544Z,64.93
2022-08-20T11:02:00.846Z,63.22
2022-08-20T11:06:04.428Z,67.32
2022-08-20T11:10:13.733Z,69.72
2022-08-20T11:14:17.244Z,64.88
2022-08-20T11:18:20.423Z,59.95
2022-08-20T11:22:23.759Z,60.45
2022-08-20T11:26:28.290Z,65.60
2022-08-20T11:30:41.490Z,59.53
2022-08-20T11:35:41.754Z,60.35
2022-08-20T11:39:54.635Z,59.47
2022-08-20T11:44:30.023Z,61.17
2022-08-20T11:49:06.898Z,51.53
2022-08-20T11:53:43.719Z,59.28
2022-08-20T11:58:20.431Z,58.53
2022-08-20T12:02:59.047Z,51.03
2022-08-20T12:07:10.575Z,44.30
2022-08-20T12:11:13.912Z,46.45
2022-08-20T12:15:17.098Z,39.22
2022-08-20T12:19:56.953Z,45.08
2022-08-20T12:24:30.790Z,46.40
2022-08-20T12:29:07.743Z,43.20
2022-08-20T12:33:44.744Z,44.10
2022-08-20T12:38:21.526Z,34.90
2022-08-20T12:43:00.020Z,36.85
2022-08-20T12:47:15.322Z,37.65
2022-08-20T12:51:18.447Z,38.00
2022-08-20T12:55:52.518Z,38.05
2022-08-20T13:00:32.443Z,34.90
2022-08-20T13:05:12.206Z,38.60
2022-08-20T13:09:46.340Z,34.92
2022-08-20T13:14:23.938Z,38.25
2022-08-20T13:19:02.505Z,34.83
2022-08-20T13:23:39.555Z,33.17
2022-08-20T13:28:16.429Z,32.22
2022-08-20T13:32:53.281Z,32.75
2022-08-20T13:37:32.005Z,32.72
2022-08-20T13:42:05.714Z,31.95
2022-08-20T13:46:42.950Z,26.63
2022-08-20T13:50:46.814Z,31.73
2022-08-20T13:55:23.778Z,33.60
2022-08-20T13:59:59.141Z,27.85
2022-08-20T14:04:02.366Z,26.95
2022-08-20T14:08:39.129Z,29.92
2022-08-20T14:12:44.070Z,30.02
2022-08-20T14:16:48.272Z,31.45
2022-08-20T14:21:22.318Z,32.20
2022-08-20T14:25:59.801Z,29.27
2022-08-20T14:30:06.355Z,32.47
2022-08-20T14:34:09.475Z,25.63
2022-08-20T14:38:46.317Z,27.23
2022-08-20T14:42:51.528Z,28.35
2022-08-20T14:47:28.660Z,30.65
2022-08-20T14:56:47.254Z,32.40
2022-08-20T15:00:50.416Z,28.38
2022-08-20T15:05:27.030Z,32.08
2022-08-20T15:09:33.269Z,29.23
2022-08-20T15:14:07.151Z,29.70
2022-08-20T15:18:12.028Z,28.90
2022-08-20T15:22:49.633Z,27.98
2022-08-20T15:27:26.078Z,27.98
2022-08-20T15:32:00.847Z,24.52
2022-08-20T15:36:04.977Z,28.95
2022-08-20T15:40:40.947Z,29.63
2022-08-20T15:45:21.769Z,26.60
2022-08-20T15:49:25.998Z,28.20
2022-08-20T15:53:56.623Z,29.02
2022-08-20T15:58:36.189Z,29.95
2022-08-20T16:03:22.036Z,33.20
2022-08-20T16:07:34.960Z,33.20
2022-08-20T16:12:03.551Z,15.98
2022-08-20T16:16:36.859Z,15.13
2022-08-20T16:21:10.890Z,16.77
2022-08-20T16:25:56.406Z,24.80
2022-08-20T16:30:30.870Z,22.10
2022-08-20T16:34:59.820Z,24.63
2022-08-20T16:39:38.344Z,17.17
2022-08-20T16:44:09.014Z,20.00
2022-08-20T16:48:58.057Z,21.33
2022-08-20T16:53:23.762Z,24.70
2022-08-20T16:58:00.494Z,24.60
2022-08-20T17:02:36.984Z,23.25
2022-08-20T17:07:15.626Z,25.20
2022-08-20T17:11:53.197Z,28.42
2022-08-20T17:16:36.554Z,23.95
2022-08-20T17:21:06.041Z,22.30
2022-08-20T17:25:44.828Z,24.30
2022-08-20T17:30:21.115Z,23.17
2022-08-20T17:34:56.325Z,24.73
2022-08-20T17:39:31.678Z,33.88
2022-08-20T17:44:08.103Z,21.58
2022-08-20T17:48:44.906Z,22.17
2022-08-20T17:52:52.298Z,23.90
2022-08-20T17:57:24.967Z,27.75
2022-08-20T18:01:58.647Z,25.38
2022-08-20T18:06:41.476Z,27.30
2022-08-20T18:11:17.734Z,35.80
2022-08-20T18:15:30.386Z,34.67
2022-08-20T18:20:13.184Z,42.45
2022-08-20T18:24:21.949Z,30.88
2022-08-20T18:28:55.012Z,28.75
2022-08-20T18:33:05.286Z,22.20
2022-08-20T18:37:36.092Z,21.90
2022-08-20T18:42:26.949Z,15.48
2022-08-20T18:46:55.801Z,14.45
2022-08-20T18:56:16.729Z,10.90
2022-08-20T19:00:52.304Z,9.35
2022-08-20T19:05:02.231Z,6.82
2022-08-20T19:09:12.962Z,6.72
2022-08-20T19:13:47.714Z,7.75
2022-08-20T19:18:16.756Z,9.93
2022-08-20T19:22:53.502Z,6.43
2022-08-20T19:27:04.563Z,8.35
2022-08-20T19:31:35.209Z,7.95
2022-08-20T19:36:14.110Z,6.65
2022-08-20T19:41:11.031Z,5.45
2022-08-20T19:45:25.164Z,10.30
2022-08-20T19:49:57.514Z,7.97
2022-08-20T19:54:26.568Z,6.35
2022-08-20T19:59:05.632Z,6.05
2022-08-20T20:03:37.785Z,12.30
2022-08-20T20:08:14.468Z,6.15
2022-08-20T20:12:48.576Z,6.97
2022-08-20T20:17:05.086Z,6.68
2022-08-20T20:21:14.520Z,9.93
2022-08-20T20:25:46.321Z,7.93
2022-08-20T20:30:35.618Z,9.95
2022-08-20T20:34:55.654Z,8.85
2022-08-20T20:39:01.346Z,9.02
2022-08-20T20:43:08.065Z,7.88
2022-08-20T20:47:21.875Z,7.22
2022-08-20T20:51:55.385Z,8.60
2022-08-20T20:56:31.152Z,9.23
2022-08-20T21:00:35.761Z,10.25
2022-08-20T21:05:10.519Z,11.18
2022-08-20T21:09:15.127Z,16.52
2022-08-20T21:13:18.224Z,19.67
2022-08-20T21:17:24.145Z,11.40
2022-08-20T21:21:27.275Z,9.88
2022-08-20T21:26:05.865Z,17.02
2022-08-20T21:30:09.729Z,15.77
2022-08-20T21:34:14.823Z,16.92
2022-08-20T21:38:17.953Z,15.20
2022-08-20T21:42:29.141Z,19.38
2022-08-20T21:46:32.831Z,19.45
2022-08-20T21:50:37.469Z,19.13
2022-08-20T21:59:58.302Z,21.00
2022-08-20T22:04:01.546Z,21.95
2022-08-20T22:08:05.189Z,19.05
2022-08-20T22:12:42.006Z,28.42
2022-08-20T22:16:46.829Z,24.15
2022-08-20T22:21:22.770Z,34.00
2022-08-20T22:25:25.877Z,19.15
2022-08-20T22:29:29.144Z,24.13
2022-08-20T22:33:34.266Z,28.00
2022-08-20T22:37:37.638Z,22.88
2022-08-20T22:41:41.310Z,30.20
2022-08-20T22:46:18.338Z,27.67
2022-08-20T22:50:25.066Z,27.85
2022-08-20T22:54:28.404Z,19.52
2022-08-20T22:58:31.611Z,31.30
2022-08-20T23:03:09.135Z,31.45
2022-08-20T23:07:15.351Z,29.02
2022-08-20T23:11:18.462Z,40.35
2022-08-20T23:15:55.353Z,22.63
2022-08-20T23:19:59.482Z,36.33
2022-08-20T23:24:04.252Z,28.30
2022-08-20T23:28:09.317Z,27.67
2022-08-20T23:32:13.171Z,37.47
2022-08-20T23:36:19.010Z,39.97
2022-08-20T23:40:28.396Z,33.47
2022-08-20T23:44:31.911Z,31.60
2022-08-20T23:49:08.912Z,31.35
2022-08-20T23:53:12.157Z,32.55
2022-08-20T23:57:17.053Z,32.55
